Time;durP1;ratioP1;P1;durP2;ratioP2;P2;SDS_P1;SDS_P2;PMS_P1;PMS_P2;Temp;Humidity;BMP_temperature;BMP_pressure;BME280_temperature;BME280_humidity;BME280_pressure;Samples;Min_cycle;Max_cycle;Signal;HPM_P1;HPM_P2
2022/01/29 00:00:39;;;;;;;22.65;10.90;;;;;;;1.16;100.00;100425.88;4983375;28;20026;-73
2022/01/29 00:03:04;;;;;;;18.83;9.95;;;;;;;0.97;99.72;100396.94;5008538;28;20068;-73
2022/01/29 00:05:30;;;;;;;18.17;9.88;;;;;;;1.35;99.11;100443.28;4993166;28;20030;-72
2022/01/29 00:07:55;;;;;;;22.67;9.48;;;;;;;1.36;99.15;100434.31;5006513;28;20085;-71
2022/01/29 00:10:20;;;;;;;20.05;8.55;;;;;;;1.37;98.39;100436.91;4988860;28;20233;-71
2022/01/29 00:12:46;;;;;;;18.88;9.00;;;;;;;1.44;98.02;100446.19;4985805;28;20034;-71
2022/01/29 00:15:11;;;;;;;18.20;8.40;;;;;;;1.41;97.49;100425.03;4995461;28;20042;-71
2022/01/29 00:17:37;;;;;;;18.33;9.57;;;;;;;1.59;97.12;100420.25;4991580;28;20026;-71
2022/01/29 00:20:04;;;;;;;18.30;8.43;;;;;;;1.72;95.86;100425.59;4992015;28;20395;-71
2022/01/29 00:22:29;;;;;;;22.08;9.77;;;;;;;1.89;95.63;100435.97;5002807;28;20422;-71
2022/01/29 00:24:57;;;;;;;20.30;9.90;;;;;;;1.66;96.16;100410.03;4992734;28;20033;-71
2022/01/29 00:27:24;;;;;;;20.33;9.50;;;;;;;1.61;96.72;100406.84;5012991;28;20022;-72
2022/01/29 00:29:49;;;;;;;20.80;8.88;;;;;;;1.43;98.04;100403.63;4995812;28;20388;-71
2022/01/29 00:32:15;;;;;;;20.13;8.80;;;;;;;1.34;98.37;100415.78;4991212;28;20042;-71
2022/01/29 00:34:40;;;;;;;21.00;8.95;;;;;;;0.99;99.72;100371.03;5003168;28;20108;-71
2022/01/29 00:37:06;;;;;;;21.08;9.55;;;;;;;0.97;100.00;100380.97;4993265;28;20026;-71
2022/01/29 00:39:32;;;;;;;18.48;9.63;;;;;;;1.12;100.00;100392.38;4995208;28;20085;-71
2022/01/29 00:41:58;;;;;;;24.08;9.40;;;;;;;1.26;99.09;100368.31;4983666;28;20027;-71
2022/01/29 00:44:23;;;;;;;16.27;9.07;;;;;;;1.23;99.05;100360.53;4990826;28;20111;-71
2022/01/29 00:46:48;;;;;;;21.98;9.32;;;;;;;1.30;99.13;100380.44;4985453;28;20018;-71
2022/01/29 00:49:14;;;;;;;19.20;8.95;;;;;;;1.28;99.57;100392.19;4988845;28;20145;-71
2022/01/29 00:51:40;;;;;;;19.95;10.40;;;;;;;1.30;99.94;100398.28;4990819;28;20116;-72
2022/01/29 00:54:06;;;;;;;22.15;9.50;;;;;;;1.22;99.43;100401.47;4983140;28;20018;-71
2022/01/29 00:56:32;;;;;;;17.55;9.10;;;;;;;0.94;100.00;100375.81;4979392;28;20124;-71
2022/01/29 00:58:58;;;;;;;21.02;9.18;;;;;;;0.97;100.00;100396.06;4984601;28;20528;-71
2022/01/29 01:01:23;;;;;;;21.42;10.07;;;;;;;0.91;100.00;100389.34;5007372;28;20142;-70
2022/01/29 01:03:49;;;;;;;22.75;9.70;;;;;;;0.65;100.00;100354.66;4997058;28;20058;-71
2022/01/29 01:06:14;;;;;;;25.35;10.80;;;;;;;0.92;100.00;100395.53;4985885;28;20164;-71
2022/01/29 01:08:39;;;;;;;23.00;10.10;;;;;;;0.96;100.00;100387.22;4988953;28;20066;-71
2022/01/29 01:11:05;;;;;;;25.58;9.73;;;;;;;0.77;100.00;100366.28;4989391;28;20022;-71
2022/01/29 01:13:32;;;;;;;21.42;9.90;;;;;;;0.95;100.00;100400.66;4993156;28;20035;-71
2022/01/29 01:15:57;;;;;;;18.95;9.18;;;;;;;0.59;100.00;100349.72;4993631;28;20149;-71
2022/01/29 01:18:23;;;;;;;16.42;8.40;;;;;;;0.63;100.00;100361.03;4987897;28;20232;-72
2022/01/29 01:20:49;;;;;;;18.33;8.48;;;;;;;0.60;100.00;100351.44;4997129;28;20030;-71
2022/01/29 01:23:14;;;;;;;19.65;9.10;;;;;;;0.85;100.00;100400.41;5000799;28;20554;-71
2022/01/29 01:25:39;;;;;;;18.73;9.18;;;;;;;0.80;100.00;100402.53;4989575;28;20033;-71
2022/01/29 01:28:05;;;;;;;19.88;9.57;;;;;;;0.70;100.00;100377.47;4992475;28;20077;-71
2022/01/29 01:30:30;;;;;;;20.00;9.30;;;;;;;0.79;100.00;100387.53;4988011;28;20030;-71
2022/01/29 01:32:56;;;;;;;21.23;9.15;;;;;;;0.72;100.00;100387.06;4989968;28;20061;-71
2022/01/29 01:35:29;;;;;;;22.02;8.23;;;;;;;0.98;100.00;100382.66;4988335;28;20040;-72
2022/01/29 01:38:00;;;;;;;18.75;8.02;;;;;;;1.08;100.00;100391.75;4985236;28;20038;-71
2022/01/29 01:40:26;;;;;;;16.67;8.75;;;;;;;1.13;100.00;100410.09;5000826;28;20053;-71
2022/01/29 01:42:58;;;;;;;16.75;8.35;;;;;;;0.96;100.00;100386.38;4988749;28;20054;-71
2022/01/29 01:45:24;;;;;;;17.55;8.13;;;;;;;1.06;100.00;100406.13;4986068;28;20542;-71
2022/01/29 01:47:49;;;;;;;18.02;8.13;;;;;;;1.05;100.00;100389.28;4981738;28;20027;-71
2022/01/29 01:50:15;;;;;;;26.48;10.65;;;;;;;1.27;100.00;100404.66;4993500;28;20042;-71
2022/01/29 01:52:41;;;;;;;22.88;9.27;;;;;;;1.43;100.00;100400.94;4982469;28;20463;-71
2022/01/29 01:55:07;;;;;;;19.40;9.98;;;;;;;1.37;100.00;100401.38;4984406;28;20045;-71
2022/01/29 01:57:33;;;;;;;19.60;9.25;;;;;;;0.91;100.00;100338.72;4985140;28;20544;-71
2022/01/29 01:59:58;;;;;;;18.95;9.50;;;;;;;1.13;100.00;100364.78;4984414;28;20149;-71
2022/01/29 02:02:23;;;;;;;20.67;9.48;;;;;;;1.11;100.00;100379.16;4988005;28;20132;-71
2022/01/29 02:04:49;;;;;;;23.67;9.98;;;;;;;1.06;100.00;100340.34;4986339;28;20078;-71
2022/01/29 02:07:15;;;;;;;19.48;9.27;;;;;;;1.09;100.00;100349.94;4985099;28;20121;-71
2022/01/29 02:09:41;;;;;;;18.58;8.85;;;;;;;1.14;100.00;100365.63;4983384;28;20037;-71
2022/01/29 02:12:09;;;;;;;17.23;9.10;;;;;;;0.87;100.00;100338.09;4999137;28;20034;-71
2022/01/29 02:14:35;;;;;;;17.13;9.05;;;;;;;0.81;100.00;100349.16;4981354;28;20046;-72
2022/01/29 02:17:02;;;;;;;17.42;8.75;;;;;;;0.94;100.00;100332.31;4987418;28;20125;-71
2022/01/29 02:19:28;;;;;;;18.30;9.10;;;;;;;0.93;100.00;100319.97;5004336;28;20037;-72
2022/01/29 02:21:55;;;;;;;17.02;8.25;;;;;;;0.74;100.00;100304.38;4991159;28;20613;-72
2022/01/29 02:24:20;;;;;;;18.00;7.93;;;;;;;0.90;100.00;100306.88;4982226;28;20113;-72
2022/01/29 02:26:46;;;;;;;19.08;8.57;;;;;;;0.57;100.00;100271.72;4985072;28;20106;-72
2022/01/29 02:29:11;;;;;;;18.33;8.70;;;;;;;0.59;100.00;100299.13;4986160;28;20136;-72
2022/01/29 02:31:45;;;;;;;17.00;7.95;;;;;;;0.78;100.00;100284.56;4988328;28;20097;-72
2022/01/29 02:34:11;;;;;;;17.42;8.30;;;;;;;0.96;100.00;100301.09;4990298;28;20022;-72
2022/01/29 02:36:36;;;;;;;16.30;8.15;;;;;;;0.80;100.00;100264.00;4996325;28;20081;-72
2022/01/29 02:39:02;;;;;;;17.63;7.50;;;;;;;0.96;100.00;100299.28;4990536;28;20507;-72
2022/01/29 02:41:28;;;;;;;17.00;9.25;;;;;;;0.75;100.00;100280.28;4984237;28;20038;-72
2022/01/29 02:43:56;;;;;;;18.80;8.13;;;;;;;0.67;100.00;100269.31;4992785;28;20787;-72
2022/01/29 02:46:30;;;;;;;20.73;8.67;;;;;;;0.73;100.00;100278.69;4991194;28;20023;-72
2022/01/29 02:48:58;;;;;;;16.98;9.07;;;;;;;0.72;100.00;100277.84;4983831;28;20278;-72
2022/01/29 02:51:24;;;;;;;21.83;9.55;;;;;;;0.57;100.00;100263.75;4987950;28;20030;-72
2022/01/29 02:53:50;;;;;;;21.48;10.32;;;;;;;0.55;100.00;100263.03;5004892;28;20652;-72
2022/01/29 02:56:15;;;;;;;23.13;10.45;;;;;;;0.59;100.00;100259.16;4992230;28;20057;-72
2022/01/29 02:58:41;;;;;;;22.08;9.43;;;;;;;0.50;100.00;100259.81;5004877;28;20128;-72
2022/01/29 03:01:08;;;;;;;19.17;9.40;;;;;;;0.49;100.00;100262.56;5002988;28;20600;-71
2022/01/29 03:03:34;;;;;;;22.65;9.93;;;;;;;0.48;100.00;100235.09;4984637;28;20034;-72
2022/01/29 03:06:02;;;;;;;20.65;8.98;;;;;;;0.41;100.00;100224.00;4989232;28;20216;-72
2022/01/29 03:08:27;;;;;;;21.30;10.07;;;;;;;0.42;100.00;100225.72;4991529;28;20034;-72
2022/01/29 03:10:52;;;;;;;24.00;11.90;;;;;;;0.43;100.00;100227.41;4985211;28;20109;-71
2022/01/29 03:13:17;;;;;;;21.95;10.63;;;;;;;0.39;100.00;100214.41;4996168;28;20093;-72
2022/01/29 03:15:43;;;;;;;27.55;10.20;;;;;;;0.58;100.00;100235.31;4986891;28;20049;-72
2022/01/29 03:18:08;;;;;;;23.20;10.82;;;;;;;0.71;100.00;100269.94;4988084;28;20062;-71
2022/01/29 03:20:33;;;;;;;23.13;10.90;;;;;;;0.73;100.00;100273.38;4987641;28;20026;-71
2022/01/29 03:22:59;;;;;;;25.80;10.80;;;;;;;0.71;100.00;100245.97;4987025;28;20030;-71
2022/01/29 03:25:25;;;;;;;24.60;11.35;;;;;;;0.80;100.00;100240.03;4982461;28;20034;-71
2022/01/29 03:27:50;;;;;;;25.02;10.20;;;;;;;0.58;100.00;100198.03;4988171;28;20030;-72
2022/01/29 03:30:16;;;;;;;26.55;12.18;;;;;;;0.68;100.00;100216.88;4992521;28;20034;-71
2022/01/29 03:32:42;;;;;;;21.35;10.60;;;;;;;0.82;100.00;100249.63;4986888;28;20038;-72
2022/01/29 03:35:07;;;;;;;24.67;12.02;;;;;;;0.46;100.00;100196.22;4987379;28;20030;-72
2022/01/29 03:37:33;;;;;;;22.23;11.23;;;;;;;0.62;100.00;100216.34;4990000;28;20484;-72
2022/01/29 03:40:02;;;;;;;28.65;11.23;;;;;;;0.82;100.00;100235.44;4993349;28;20030;-72
2022/01/29 03:42:30;;;;;;;22.65;8.88;;;;;;;0.87;100.00;100242.16;4999585;28;20117;-72
2022/01/29 03:44:57;;;;;;;22.50;10.82;;;;;;;0.72;100.00;100221.06;5000754;28;20073;-72
2022/01/29 03:47:22;;;;;;;20.30;10.10;;;;;;;0.93;100.00;100251.53;4993696;28;20030;-72
2022/01/29 03:49:48;;;;;;;21.33;9.63;;;;;;;0.92;100.00;100249.84;4993899;28;20026;-72
2022/01/29 03:52:13;;;;;;;23.65;9.38;;;;;;;0.59;100.00;100184.59;4991870;28;20061;-71
2022/01/29 03:54:38;;;;;;;22.48;10.10;;;;;;;0.78;100.00;100213.47;4995061;28;20038;-72
2022/01/29 03:57:04;;;;;;;20.65;9.75;;;;;;;0.75;100.00;100210.19;5000223;28;20153;-71
2022/01/29 03:59:29;;;;;;;22.00;10.18;;;;;;;0.62;100.00;100184.38;4992973;28;20080;-71
2022/01/29 04:01:54;;;;;;;24.45;10.85;;;;;;;0.92;100.00;100215.22;5005202;28;20041;-72
2022/01/29 04:04:20;;;;;;;25.30;11.75;;;;;;;0.89;100.00;100191.41;4982458;28;20399;-71
2022/01/29 04:06:45;;;;;;;28.58;12.35;;;;;;;1.07;100.00;100207.94;4981180;28;20026;-71
2022/01/29 04:09:11;;;;;;;27.00;11.85;;;;;;;0.83;100.00;100166.06;4989789;28;20045;-72
2022/01/29 04:11:38;;;;;;;23.45;11.13;;;;;;;1.12;100.00;100219.13;4986002;28;20022;-71
2022/01/29 04:14:18;;;;;;;24.55;11.85;;;;;;;1.03;100.00;100209.13;4992642;28;20022;-72
2022/01/29 04:16:45;;;;;;;23.17;11.25;;;;;;;1.09;100.00;100225.50;4986125;28;20030;-71
2022/01/29 04:19:11;;;;;;;28.77;11.68;;;;;;;1.06;100.00;100215.06;4987487;28;20502;-72
2022/01/29 04:21:38;;;;;;;26.77;12.13;;;;;;;1.05;100.00;100202.72;4986031;28;20065;-71
2022/01/29 04:24:04;;;;;;;26.67;12.70;;;;;;;1.18;100.00;100220.50;4969787;28;20039;-71
2022/01/29 04:26:34;;;;;;;27.13;11.55;;;;;;;1.09;100.00;100198.00;4982070;28;20022;-72
2022/01/29 04:29:03;;;;;;;24.33;11.65;;;;;;;1.23;100.00;100211.25;4989572;28;20022;-72
2022/01/29 04:31:37;;;;;;;19.17;8.80;;;;;;;1.16;100.00;100204.63;4991822;28;20041;-71
2022/01/29 04:34:03;;;;;;;27.08;12.57;;;;;;;1.03;100.00;100178.00;4993954;28;20021;-72
2022/01/29 04:36:28;;;;;;;28.00;12.30;;;;;;;1.18;100.00;100199.16;4982710;28;20041;-72
2022/01/29 04:38:53;;;;;;;27.98;13.45;;;;;;;1.17;100.00;100205.47;4989894;28;20395;-71
2022/01/29 04:41:21;;;;;;;23.08;11.13;;;;;;;1.14;100.00;100192.38;4988751;28;20037;-71
2022/01/29 04:43:47;;;;;;;23.80;12.00;;;;;;;1.27;100.00;100198.53;4981364;28;20676;-71
2022/01/29 04:46:12;;;;;;;25.85;12.38;;;;;;;1.22;100.00;100193.53;4990568;28;20106;-72
2022/01/29 04:48:37;;;;;;;24.88;11.85;;;;;;;1.32;100.00;100215.06;4989994;28;20105;-72
2022/01/29 04:51:02;;;;;;;22.88;11.80;;;;;;;1.41;100.00;100219.72;4985516;28;20040;-71
2022/01/29 04:53:28;;;;;;;22.92;11.80;;;;;;;1.41;100.00;100221.53;4988176;28;20026;-71
2022/01/29 04:55:53;;;;;;;29.70;12.95;;;;;;;1.32;100.00;100217.72;4987559;28;20026;-71
2022/01/29 04:58:18;;;;;;;23.92;11.85;;;;;;;1.33;100.00;100221.22;4986038;28;20065;-71
2022/01/29 05:00:44;;;;;;;23.23;12.55;;;;;;;1.43;100.00;100231.13;4990971;28;20064;-72
2022/01/29 05:03:14;;;;;;;27.83;13.10;;;;;;;1.33;100.00;100232.75;4991257;28;20038;-72
2022/01/29 05:05:41;;;;;;;24.65;12.75;;;;;;;1.43;100.00;100244.47;4990030;28;20121;-72
2022/01/29 05:08:06;;;;;;;28.08;12.82;;;;;;;1.23;100.00;100215.69;4989428;28;20042;-72
2022/01/29 05:10:33;;;;;;;29.23;13.52;;;;;;;1.38;100.00;100235.94;4995701;28;20392;-71
2022/01/29 05:13:02;;;;;;;23.35;12.30;;;;;;;1.38;100.00;100241.25;5005586;28;20025;-72
2022/01/29 05:28:54;;;;;;;21.00;10.35;;;;;;;1.41;99.48;100222.38;4991030;28;20435;-74
2022/01/29 05:31:20;;;;;;;19.40;9.90;;;;;;;1.33;99.53;100206.06;4990359;28;20027;-74
2022/01/29 05:33:45;;;;;;;22.20;10.75;;;;;;;1.40;99.24;100210.00;4989415;28;20027;-75
2022/01/29 05:36:10;;;;;;;20.45;10.68;;;;;;;1.54;99.26;100241.03;4988054;28;20114;-75
2022/01/29 05:38:36;;;;;;;22.05;10.75;;;;;;;1.50;99.44;100237.72;5000009;28;20045;-72
2022/01/29 05:41:04;;;;;;;22.50;9.95;;;;;;;1.31;99.03;100200.88;4980694;28;20034;-72
2022/01/29 05:43:30;;;;;;;20.73;9.05;;;;;;;1.24;99.41;100204.09;4979985;28;20026;-71
2022/01/29 05:45:55;;;;;;;20.92;10.40;;;;;;;1.49;99.68;100224.50;4986387;28;20034;-72
2022/01/29 05:48:21;;;;;;;19.55;8.70;;;;;;;1.59;99.29;100232.69;4986343;28;20388;-73
2022/01/29 05:50:46;;;;;;;20.73;9.88;;;;;;;1.34;98.88;100180.25;4986069;28;20101;-74
2022/01/29 05:53:11;;;;;;;18.38;8.57;;;;;;;1.42;98.20;100212.59;4979469;28;20018;-74
2022/01/29 05:55:37;;;;;;;15.43;7.78;;;;;;;1.52;97.88;100206.47;4982488;28;20026;-75
2022/01/29 05:58:02;;;;;;;18.02;8.07;;;;;;;1.36;97.73;100195.19;4990423;28;20046;-74
2022/01/29 06:00:27;;;;;;;17.63;8.55;;;;;;;1.45;97.67;100220.34;4989592;28;20057;-74
2022/01/29 06:03:04;;;;;;;19.83;8.50;;;;;;;1.49;97.40;100228.03;4989962;28;20056;-75
2022/01/29 06:05:30;;;;;;;16.88;7.72;;;;;;;1.39;98.24;100213.66;4993869;28;20018;-74
2022/01/29 06:07:56;;;;;;;17.55;7.88;;;;;;;1.29;98.45;100197.47;5008906;28;20439;-74
2022/01/29 06:10:22;;;;;;;18.67;7.88;;;;;;;1.23;98.78;100170.38;4993709;28;20459;-75
2022/01/29 06:13:08;;;;;;;16.27;7.75;;;;;;;1.46;98.67;100206.91;5004907;28;20422;-75
2022/01/29 06:15:39;;;;;;;16.45;7.28;;;;;;;1.42;98.40;100197.44;5004795;28;20114;-74
2022/01/29 06:18:05;;;;;;;17.20;7.30;;;;;;;1.37;98.19;100178.25;4990724;28;20030;-75
2022/01/29 06:20:30;;;;;;;20.15;8.00;;;;;;;1.20;98.28;100158.13;4986092;28;20033;-73
2022/01/29 06:22:56;;;;;;;17.38;7.60;;;;;;;1.46;98.36;100190.91;4984888;28;20041;-73
2022/01/29 06:25:21;;;;;;;17.02;7.53;;;;;;;1.25;98.96;100187.97;4991762;28;20026;-73
2022/01/29 06:27:47;;;;;;;16.25;6.88;;;;;;;1.23;98.90;100176.59;4995672;28;20118;-73
2022/01/29 06:30:14;;;;;;;17.40;7.05;;;;;;;1.09;98.61;100163.38;4989366;28;20509;-72
2022/01/29 06:32:39;;;;;;;17.23;7.32;;;;;;;1.15;98.79;100175.41;4985628;28;20030;-76
2022/01/29 06:35:05;;;;;;;16.13;6.75;;;;;;;1.14;98.59;100174.56;4991768;28;20425;-75
2022/01/29 06:37:30;;;;;;;17.90;6.82;;;;;;;1.08;98.40;100161.69;4990003;28;20019;-75
2022/01/29 06:40:05;;;;;;;16.23;6.70;;;;;;;1.14;98.19;100163.06;4997821;28;20519;-80
2022/01/29 06:42:30;;;;;;;13.75;6.78;;;;;;;1.17;97.77;100168.16;5010389;28;20045;-76
2022/01/29 06:44:56;;;;;;;12.93;6.13;;;;;;;1.37;97.80;100202.25;5002227;28;20423;-74
2022/01/29 06:47:21;;;;;;;15.18;6.90;;;;;;;1.12;97.84;100172.97;4999241;28;20026;-75
2022/01/29 06:49:47;;;;;;;13.13;6.78;;;;;;;1.22;97.64;100184.66;5011383;28;20030;-74
2022/01/29 06:52:12;;;;;;;15.10;6.65;;;;;;;1.33;97.08;100190.06;4996008;28;20500;-70
2022/01/29 06:54:37;;;;;;;16.70;8.00;;;;;;;1.41;96.41;100197.53;5009326;28;20073;-69
2022/01/29 06:57:03;;;;;;;19.70;7.05;;;;;;;1.46;96.86;100198.91;4989919;28;20022;-69
2022/01/29 06:59:28;;;;;;;13.02;6.53;;;;;;;1.18;97.38;100148.53;4993703;28;20566;-69
2022/01/29 07:01:53;;;;;;;17.65;7.38;;;;;;;1.37;97.23;100175.56;5002701;28;20052;-73
2022/01/29 07:04:19;;;;;;;17.85;7.65;;;;;;;1.34;97.24;100170.47;5016540;28;20072;-72
2022/01/29 07:06:44;;;;;;;19.02;7.32;;;;;;;1.24;96.90;100130.28;4996704;28;20030;-72
2022/01/29 07:09:10;;;;;;;16.17;7.20;;;;;;;1.34;96.92;100157.13;4998928;28;20131;-73
2022/01/29 07:11:35;;;;;;;15.30;7.57;;;;;;;1.48;96.40;100178.31;4991791;28;20109;-72
2022/01/29 07:14:02;;;;;;;17.40;7.20;;;;;;;1.34;96.26;100149.16;4992399;28;20403;-72
2022/01/29 07:16:32;;;;;;;18.42;7.93;;;;;;;1.52;96.81;100170.97;4989361;28;20464;-72
2022/01/29 07:18:58;;;;;;;15.48;7.25;;;;;;;1.57;96.43;100186.59;4986392;28;20074;-73
2022/01/29 07:21:23;;;;;;;14.10;6.82;;;;;;;1.51;96.34;100162.06;4992723;28;20452;-72
2022/01/29 07:23:48;;;;;;;16.85;6.93;;;;;;;1.50;95.93;100157.72;4996844;28;20772;-73
2022/01/29 07:26:14;;;;;;;16.63;7.25;;;;;;;1.48;97.05;100169.47;4986967;28;20372;-72
2022/01/29 07:28:39;;;;;;;17.48;7.15;;;;;;;1.35;97.15;100144.66;4990726;28;20028;-72
2022/01/29 07:31:05;;;;;;;22.48;7.85;;;;;;;1.30;96.87;100137.81;4989544;28;20034;-73
2022/01/29 07:33:31;;;;;;;14.95;8.00;;;;;;;1.65;96.31;100187.75;4993308;28;20108;-73
2022/01/29 07:35:57;;;;;;;19.15;8.45;;;;;;;1.71;95.39;100168.63;4988223;28;20034;-73
2022/01/29 07:38:22;;;;;;;18.75;8.38;;;;;;;1.59;95.34;100158.00;4983442;28;20034;-73
2022/01/29 07:40:47;;;;;;;16.80;8.60;;;;;;;1.60;95.00;100157.03;4991363;28;20057;-74
2022/01/29 07:43:13;;;;;;;19.55;8.18;;;;;;;1.79;94.85;100186.75;4992778;28;20088;-73
2022/01/29 07:45:38;;;;;;;17.80;8.02;;;;;;;1.75;95.07;100185.25;4986336;28;20117;-72
2022/01/29 07:48:04;;;;;;;19.83;8.52;;;;;;;1.80;93.82;100161.75;4990194;28;20036;-74
2022/01/29 07:50:29;;;;;;;16.15;8.40;;;;;;;1.87;94.15;100176.34;4991070;28;20072;-73
2022/01/29 07:52:54;;;;;;;15.88;8.95;;;;;;;1.72;94.00;100140.13;4973200;28;20058;-74
2022/01/29 07:55:20;;;;;;;17.05;8.50;;;;;;;1.72;93.66;100150.81;5004618;28;20037;-74
2022/01/29 07:57:46;;;;;;;15.95;8.15;;;;;;;1.95;93.33;100171.28;4990865;28;20110;-73
2022/01/29 08:00:12;;;;;;;15.50;7.75;;;;;;;2.00;92.84;100164.78;4992231;28;20482;-73
2022/01/29 08:02:37;;;;;;;15.65;8.10;;;;;;;1.92;92.88;100139.50;4991670;28;20089;-77
2022/01/29 08:05:02;;;;;;;21.80;8.63;;;;;;;1.86;93.13;100129.28;4991150;28;20023;-79
2022/01/29 08:07:28;;;;;;;19.40;9.18;;;;;;;1.88;92.45;100130.00;4992733;28;20018;-79
2022/01/29 08:09:53;;;;;;;17.02;8.60;;;;;;;1.91;92.67;100124.47;4986668;28;20400;-78
2022/01/29 08:12:18;;;;;;;18.50;8.50;;;;;;;1.68;92.64;100066.63;4987213;28;20029;-76
2022/01/29 08:14:44;;;;;;;16.60;8.20;;;;;;;2.09;92.43;100142.69;4984364;28;20648;-79
2022/01/29 08:17:09;;;;;;;15.80;8.23;;;;;;;1.92;91.97;100099.47;4989930;28;20034;-77
2022/01/29 08:19:34;;;;;;;18.13;7.93;;;;;;;1.91;91.39;100087.09;5002939;28;20496;-74
2022/01/29 08:21:59;;;;;;;19.95;8.98;;;;;;;2.01;91.91;100108.59;5002274;28;20512;-76
2022/01/29 08:24:25;;;;;;;18.83;8.60;;;;;;;2.31;91.88;100140.13;4984149;28;20037;-70
2022/01/29 08:26:50;;;;;;;22.65;9.63;;;;;;;2.16;91.64;100109.25;4986953;28;20485;-76
2022/01/29 08:29:15;;;;;;;17.90;8.63;;;;;;;2.27;90.95;100122.59;4988783;28;20119;-79
2022/01/29 08:31:41;;;;;;;17.85;8.50;;;;;;;2.40;90.58;100141.22;4991101;28;20061;-78
2022/01/29 08:34:06;;;;;;;17.02;8.73;;;;;;;2.19;90.87;100103.66;4988363;28;20034;-72
2022/01/29 08:36:31;;;;;;;19.63;9.32;;;;;;;2.31;90.38;100120.56;4977577;28;20030;-72
2022/01/29 08:38:57;;;;;;;17.55;8.25;;;;;;;2.45;90.64;100141.72;4971759;28;20042;-72
2022/01/29 08:41:22;;;;;;;24.98;8.93;;;;;;;2.47;90.00;100133.59;4975158;28;20042;-72
2022/01/29 08:43:47;;;;;;;16.38;8.60;;;;;;;2.33;89.50;100116.81;4970101;28;20084;-72
2022/01/29 08:46:13;;;;;;;22.73;9.38;;;;;;;2.29;89.48;100115.34;4978084;28;20037;-72
2022/01/29 08:48:38;;;;;;;21.95;9.63;;;;;;;2.55;90.08;100131.19;4982222;28;20064;-79
2022/01/29 08:51:03;;;;;;;19.08;8.88;;;;;;;2.51;88.95;100102.97;4986743;28;20022;-74
2022/01/29 08:53:29;;;;;;;21.40;9.18;;;;;;;2.63;88.45;100126.06;4987388;28;20120;-75
2022/01/29 08:55:54;;;;;;;22.48;10.32;;;;;;;2.69;89.24;100127.41;4986548;28;20038;-74
2022/01/29 08:58:19;;;;;;;22.80;10.25;;;;;;;2.82;88.19;100112.97;4986281;28;20105;-76
2022/01/29 09:00:46;;;;;;;18.80;8.57;;;;;;;2.83;88.36;100120.03;4999524;28;20054;-75
2022/01/29 09:03:15;;;;;;;15.95;8.40;;;;;;;3.00;87.48;100125.84;4987423;28;20026;-76
2022/01/29 09:05:42;;;;;;;14.30;7.70;;;;;;;3.06;87.30;100109.31;5001385;28;20522;-75
2022/01/29 09:08:08;;;;;;;23.88;9.85;;;;;;;3.19;86.65;100120.72;4987705;28;20035;-73
2022/01/29 09:10:33;;;;;;;19.95;9.23;;;;;;;3.26;86.90;100097.84;4979396;28;20033;-74
2022/01/29 09:12:58;;;;;;;16.75;8.57;;;;;;;3.45;86.37;100105.22;4980678;28;20030;-73
2022/01/29 09:15:24;;;;;;;18.10;8.65;;;;;;;3.57;84.66;100090.00;4984490;28;20036;-83
2022/01/29 09:17:50;;;;;;;18.27;7.72;;;;;;;3.89;84.01;100100.69;4991720;28;20383;-82
2022/01/29 09:20:15;;;;;;;15.77;6.75;;;;;;;3.85;83.02;100093.03;5004662;28;20026;-70
2022/01/29 09:22:41;;;;;;;12.73;6.90;;;;;;;3.79;82.91;100074.81;4976203;28;20121;-72
2022/01/29 09:25:06;;;;;;;10.30;6.22;;;;;;;3.79;84.11;100105.09;4982802;28;20400;-73
2022/01/29 09:27:32;;;;;;;11.15;6.20;;;;;;;3.91;84.19;100097.88;4982578;28;20014;-70
2022/01/29 09:29:58;;;;;;;10.18;5.47;;;;;;;3.63;84.96;100086.78;4982111;28;20131;-71
2022/01/29 09:32:24;;;;;;;11.63;5.97;;;;;;;3.85;85.30;100101.94;4994395;28;21252;-74
2022/01/29 09:34:49;;;;;;;10.82;5.97;;;;;;;3.82;85.59;100098.66;4985172;28;20137;-74
2022/01/29 09:37:14;;;;;;;9.48;5.22;;;;;;;3.91;85.26;100073.78;4984892;28;20536;-73
2022/01/29 09:39:42;;;;;;;8.80;5.10;;;;;;;3.95;84.64;100072.53;4990103;28;20053;-76
2022/01/29 09:42:09;;;;;;;9.82;5.05;;;;;;;4.28;84.50;100092.94;4992478;28;20033;-75
2022/01/29 09:44:35;;;;;;;10.73;5.05;;;;;;;4.06;84.37;100087.69;4988685;28;20476;-78
2022/01/29 09:47:04;;;;;;;10.20;4.70;;;;;;;4.32;83.60;100072.06;4987138;28;20028;-71
2022/01/29 09:49:32;;;;;;;11.02;5.18;;;;;;;4.24;83.31;100055.81;4989267;28;20077;-74
2022/01/29 09:51:57;;;;;;;12.23;5.00;;;;;;;4.33;82.85;100057.72;4989099;28;20034;-74
2022/01/29 09:54:22;;;;;;;8.63;4.75;;;;;;;4.52;82.60;100078.41;4992138;28;20034;-72
2022/01/29 09:56:48;;;;;;;8.25;4.38;;;;;;;4.63;81.66;100085.50;4990461;28;20042;-74
2022/01/29 09:59:13;;;;;;;8.63;4.57;;;;;;;4.49;81.39;100066.13;4988135;28;20038;-72
2022/01/29 10:01:38;;;;;;;7.53;4.50;;;;;;;4.44;82.14;100064.81;4980856;28;20019;-71
2022/01/29 10:04:06;;;;;;;9.00;4.38;;;;;;;4.54;82.22;100082.66;4983909;28;20496;-71
2022/01/29 10:06:32;;;;;;;9.35;4.80;;;;;;;4.46;82.22;100079.78;4986458;28;20100;-77
2022/01/29 10:09:01;;;;;;;9.25;4.10;;;;;;;4.63;81.73;100085.50;4985002;28;20785;-74
2022/01/29 10:11:27;;;;;;;8.23;4.38;;;;;;;4.56;81.20;100074.50;4990166;28;20033;-74
2022/01/29 10:14:00;;;;;;;9.93;4.75;;;;;;;4.55;81.34;100078.97;4988688;28;20156;-74
2022/01/29 10:16:28;;;;;;;8.65;4.05;;;;;;;4.41;81.14;100068.63;5003669;28;20022;-74
2022/01/29 10:19:03;;;;;;;6.15;3.78;;;;;;;4.25;80.90;100053.03;4987249;28;20026;-75
2022/01/29 10:21:37;;;;;;;8.93;3.90;;;;;;;4.46;80.96;100063.72;4989216;28;20428;-75
2022/01/29 10:24:05;;;;;;;8.75;3.90;;;;;;;4.38;80.47;100042.09;4987268;28;20477;-74
2022/01/29 10:26:38;;;;;;;8.57;3.90;;;;;;;4.73;79.72;100063.13;5007823;28;20022;-75
2022/01/29 10:29:07;;;;;;;6.68;3.47;;;;;;;4.74;79.55;100054.09;4987015;28;20033;-75
2022/01/29 10:31:43;;;;;;;5.93;3.45;;;;;;;4.85;79.25;100055.84;4985860;28;20034;-75
2022/01/29 10:34:28;;;;;;;6.13;3.50;;;;;;;5.00;79.06;100056.28;4986401;28;20034;-75
2022/01/29 10:37:15;;;;;;;6.28;3.05;;;;;;;4.70;81.13;100054.50;4998434;28;20081;-74
2022/01/29 10:39:41;;;;;;;11.30;3.88;;;;;;;4.85;79.89;100047.78;4996951;28;20400;-77
2022/01/29 10:42:37;;;;;;;6.20;3.42;;;;;;;4.68;79.80;100005.53;4986115;28;20045;-74
2022/01/29 10:45:05;;;;;;;5.65;3.17;;;;;;;4.86;79.96;100021.81;4985496;28;20034;-75
2022/01/29 10:47:51;;;;;;;6.10;3.23;;;;;;;5.20;80.37;100051.84;4989966;28;20014;-78
2022/01/29 10:50:16;;;;;;;7.93;3.30;;;;;;;5.08;80.15;100032.31;4985640;28;20280;-74
2022/01/29 10:52:42;;;;;;;7.63;3.40;;;;;;;5.13;81.19;100002.41;4989673;28;20045;-72
2022/01/29 10:55:08;;;;;;;6.43;3.28;;;;;;;5.24;82.15;100047.91;4980295;28;20181;-76
2022/01/29 10:57:42;;;;;;;4.90;2.58;;;;;;;5.11;83.71;100015.09;4987086;28;20026;-75
2022/01/29 11:00:18;;;;;;;5.25;2.88;;;;;;;5.42;84.00;100040.88;4986400;28;20034;-71
2022/01/29 11:02:44;;;;;;;3.88;2.10;;;;;;;5.43;83.61;100026.44;4984376;28;20064;-74
2022/01/29 11:05:11;;;;;;;3.38;2.35;;;;;;;5.61;84.45;100033.81;4986022;28;20427;-74
2022/01/29 11:07:36;;;;;;;4.57;2.55;;;;;;;5.54;84.04;100028.16;4999987;28;20056;-74
2022/01/29 11:10:08;;;;;;;3.75;2.10;;;;;;;5.43;84.82;99998.75;4986479;28;20083;-73
2022/01/29 11:12:36;;;;;;;4.57;1.95;;;;;;;5.57;84.94;100022.47;4987107;28;20054;-72
2022/01/29 11:15:02;;;;;;;5.65;2.22;;;;;;;5.67;84.63;100009.06;5003313;28;20038;-75
2022/01/29 11:17:30;;;;;;;6.43;2.50;;;;;;;5.73;84.03;99995.06;4984407;28;20038;-74
2022/01/29 11:19:56;;;;;;;3.33;1.52;;;;;;;6.04;83.59;100017.25;4978072;28;20034;-77
2022/01/29 11:22:24;;;;;;;6.25;1.35;;;;;;;5.78;83.45;99992.78;4987449;28;20058;-75
2022/01/29 11:25:02;;;;;;;4.65;2.53;;;;;;;6.31;82.73;99988.75;4987178;28;20030;-77
2022/01/29 11:27:33;;;;;;;3.72;2.20;;;;;;;6.38;81.83;99999.78;4987394;28;20027;-74
2022/01/29 11:30:09;;;;;;;2.75;1.30;;;;;;;6.10;82.86;99989.81;4999658;28;20524;-75
2022/01/29 11:32:39;;;;;;;2.53;1.33;;;;;;;6.51;82.07;100003.81;4987494;28;20062;-75